Detall de PIREP

Printer-friendly versionPDF version

[2013/09/28 15:53:00]
Flight IATA:CT1001
Pilot Number:042
Company ICAO:CAT
Aircraft Type:F70/A
PAX:14
Aircraft Registration:PFJ
Departing Airport: LICD
Destination Airport: LIEA
Alternate Airport:LIEO
Online: VATSIM
Route:VERAK UM740 MEGAN UM732 SODIO
Flight Level:F260
No Slew and time accel
No pause
Crash detect
Detect pilot in Cockpit between each 30 and 45 minutes
15:53 Zero fuel Weight: 72667 Lbs, Fuel Weight: 22680 Lbs
15:53 VATSIM:LICD 281450Z 14010KT CAVOK 27/23 Q1013
15:53 VATSIM:LIEA 281520Z 25008KT CAVOK 27/18 Q1010
15:53 VOI9CE CATALONIAN/MEDITERRANEAN ODYSSEY
15:59 Parking Brakes off
16:03 Take-off
16:03 Take off Weight: 95023 Lbs
16:03 Wind: 000º @ 000 Knots Heading: 081º
16:03 POS N35º 29´ 52´´ E012º 37´ 24´´
16:03 Flaps:2 at 159 Knots
16:03 Gear Up: 161 Knots
16:03 Flaps:1 at 168 Knots
16:04 Flaps:0 at 226 Knots
16:18 Wind:270º@025 Knots Heading: 334º Ground Speed: 337 Knots Altitude 23349 ft
16:19 TOC
16:19 Fuel Weight: 20481 Lb
16:33 Wind:270º@025 Knots Heading: 307º Ground Speed: 421 Knots Altitude 25994 ft
16:48 Wind:270º@025 Knots Heading: 306º Ground Speed: 421 Knots Altitude 25997 ft
16:55 TOD
16:55 Fuel Weight: 17098 Lb
17:03 Wind:270º@023 Knots Heading: 306º Ground Speed: 294 Knots Altitude 15118 ft
17:12 Gear Down: 198 Knots
17:12 Gear Up: 196 Knots
17:12 Flaps:1 at 196 Knots
17:15 Gear Down: 171 Knots
17:15 Flaps:2 at 171 Knots
17:16 Flaps:3 at 156 Knots
17:18 Wind:000º@000 Knots Heading: 204º Ground Speed: 151 Knots Altitude 590 ft
17:18 TouchDown:Rate -161 ft/min Speed: 119 Knots
17:19 VATSIM:LIEA 281650Z 21006KT CAVOK 24/19 Q1011
17:19 Land
17:19 Wind:000º@000 Knots
17:19 Heading: 204º
17:19 Flight Duration: 01:16
17:19 Landing Weight: 88868 Lbs
17:19 POS N40º 37´ 38´´ E008º 17´ 16´´
17:21 Parking brakes on
17:21 Block to Block Duration: 01:22
17:21 Final Fuel: 16073 Lbls
17:21 Spent Fuel: 6607 Lbls
17:21 Flight Length: 356 NM
17:21 TOD Land Length: 102 NM

Exportar CSV

Powered by Drupal - Modified by Danger4k